<?xml version="1.0" encoding="UTF-8" standalone="no" ?>
<gpx xmlns="http://www.topografix.com/GPX/1/1" xmlns:xsi="http://www.w3.org/2001/XMLSchema-instance" xsi:schemaLocation="http://www.topografix.com/GPX/1/1 http://www.topografix.com/GPX/1/1/gpx.xsd" version="1.1" creator="VisuGPX - https://www.visugpx.com">
  <metadata>
    <name>Lyons 2017 Costaud</name>
    <desc><![CDATA[Sortie automnale des Sangliers du Vexin pour les costauds.]]></desc>
  </metadata>
  <trk>
    <name><![CDATA[OR-7997290--Lyons-la-Forêt:Sangliers costauds]]></name>
    <trkseg>
      <trkpt lat="49.39911" lon="1.47936">
        <ele>108</ele>
        <time>2017-10-26T18:55:19Z</time>
      </trkpt>
      <trkpt lat="49.39889" lon="1.47889">
        <ele>110</ele>
        <time>2017-10-26T18:57:19Z</time>
      </trkpt>
      <trkpt lat="49.39708" lon="1.47878">
        <ele>134</ele>
        <time>2017-10-26T18:59:19Z</time>
      </trkpt>
      <trkpt lat="49.39428" lon="1.47509">
        <ele>162</ele>
        <time>2017-10-26T19:01:19Z</time>
      </trkpt>
      <trkpt lat="49.39206" lon="1.47357">
        <ele>162</ele>
        <time>2017-10-26T19:03:19Z</time>
      </trkpt>
      <trkpt lat="49.39172" lon="1.47526">
        <ele>162</ele>
        <time>2017-10-26T19:05:19Z</time>
      </trkpt>
      <trkpt lat="49.39144" lon="1.47552">
        <ele>163</ele>
        <time>2017-10-26T19:07:19Z</time>
      </trkpt>
      <trkpt lat="49.38962" lon="1.47485">
        <ele>167</ele>
        <time>2017-10-26T19:09:19Z</time>
      </trkpt>
      <trkpt lat="49.38779" lon="1.47638">
        <ele>172</ele>
        <time>2017-10-26T19:11:19Z</time>
      </trkpt>
      <trkpt lat="49.38542" lon="1.47771">
        <ele>170</ele>
        <time>2017-10-26T19:13:19Z</time>
      </trkpt>
      <trkpt lat="49.38428" lon="1.47786">
        <ele>169</ele>
        <time>2017-10-26T19:15:19Z</time>
      </trkpt>
      <trkpt lat="49.38409" lon="1.47809">
        <ele>170</ele>
        <time>2017-10-26T19:17:19Z</time>
      </trkpt>
      <trkpt lat="49.37966" lon="1.47809">
        <ele>182</ele>
        <time>2017-10-26T19:19:19Z</time>
      </trkpt>
      <trkpt lat="49.38152" lon="1.48874">
        <ele>179</ele>
        <time>2017-10-26T19:21:19Z</time>
      </trkpt>
      <trkpt lat="49.38072" lon="1.4899">
        <ele>184</ele>
        <time>2017-10-26T19:23:19Z</time>
      </trkpt>
      <trkpt lat="49.38053" lon="1.49032">
        <ele>187</ele>
        <time>2017-10-26T19:25:19Z</time>
      </trkpt>
      <trkpt lat="49.37941" lon="1.49432">
        <ele>189</ele>
        <time>2017-10-26T19:27:19Z</time>
      </trkpt>
      <trkpt lat="49.37854" lon="1.49438">
        <ele>183</ele>
        <time>2017-10-26T19:29:19Z</time>
      </trkpt>
      <trkpt lat="49.37755" lon="1.4944">
        <ele>175</ele>
        <time>2017-10-26T19:31:19Z</time>
      </trkpt>
      <trkpt lat="49.37673" lon="1.49481">
        <ele>171</ele>
        <time>2017-10-26T19:33:19Z</time>
      </trkpt>
      <trkpt lat="49.37578" lon="1.49535">
        <ele>155</ele>
        <time>2017-10-26T19:35:19Z</time>
      </trkpt>
      <trkpt lat="49.37411" lon="1.49683">
        <ele>122</ele>
        <time>2017-10-26T19:37:19Z</time>
      </trkpt>
      <trkpt lat="49.37375" lon="1.49726">
        <ele>116</ele>
        <time>2017-10-26T19:39:19Z</time>
      </trkpt>
      <trkpt lat="49.37343" lon="1.4979">
        <ele>113</ele>
        <time>2017-10-26T19:41:19Z</time>
      </trkpt>
      <trkpt lat="49.37305" lon="1.49893">
        <ele>111</ele>
        <time>2017-10-26T19:43:19Z</time>
      </trkpt>
      <trkpt lat="49.3728" lon="1.49953">
        <ele>108</ele>
        <time>2017-10-26T19:45:19Z</time>
      </trkpt>
      <trkpt lat="49.37275" lon="1.49893">
        <ele>107</ele>
        <time>2017-10-26T19:47:19Z</time>
      </trkpt>
      <trkpt lat="49.37277" lon="1.49816">
        <ele>108</ele>
        <time>2017-10-26T19:49:19Z</time>
      </trkpt>
      <trkpt lat="49.37311" lon="1.49672">
        <ele>109</ele>
        <time>2017-10-26T19:51:19Z</time>
      </trkpt>
      <trkpt lat="49.37283" lon="1.49687">
        <ele>106</ele>
        <time>2017-10-26T19:53:19Z</time>
      </trkpt>
      <trkpt lat="49.37242" lon="1.49766">
        <ele>106</ele>
        <time>2017-10-26T19:55:19Z</time>
      </trkpt>
      <trkpt lat="49.37242" lon="1.49642">
        <ele>102</ele>
        <time>2017-10-26T19:57:19Z</time>
      </trkpt>
      <trkpt lat="49.37199" lon="1.49397">
        <ele>100</ele>
        <time>2017-10-26T19:59:19Z</time>
      </trkpt>
      <trkpt lat="49.37212" lon="1.49288">
        <ele>101</ele>
        <time>2017-10-26T20:01:19Z</time>
      </trkpt>
      <trkpt lat="49.37178" lon="1.49217">
        <ele>102</ele>
        <time>2017-10-26T20:03:19Z</time>
      </trkpt>
      <trkpt lat="49.37171" lon="1.49183">
        <ele>102</ele>
        <time>2017-10-26T20:05:19Z</time>
      </trkpt>
      <trkpt lat="49.37114" lon="1.49041">
        <ele>106</ele>
        <time>2017-10-26T20:07:19Z</time>
      </trkpt>
      <trkpt lat="49.37108" lon="1.48936">
        <ele>106</ele>
        <time>2017-10-26T20:09:19Z</time>
      </trkpt>
      <trkpt lat="49.37098" lon="1.48869">
        <ele>107</ele>
        <time>2017-10-26T20:11:19Z</time>
      </trkpt>
      <trkpt lat="49.36962" lon="1.48706">
        <ele>113</ele>
        <time>2017-10-26T20:13:19Z</time>
      </trkpt>
      <trkpt lat="49.36938" lon="1.48644">
        <ele>114</ele>
        <time>2017-10-26T20:15:19Z</time>
      </trkpt>
      <trkpt lat="49.36918" lon="1.48509">
        <ele>111</ele>
        <time>2017-10-26T20:17:19Z</time>
      </trkpt>
      <trkpt lat="49.36872" lon="1.48429">
        <ele>115</ele>
        <time>2017-10-26T20:19:19Z</time>
      </trkpt>
      <trkpt lat="49.36851" lon="1.48333">
        <ele>113</ele>
        <time>2017-10-26T20:21:19Z</time>
      </trkpt>
      <trkpt lat="49.36812" lon="1.48219">
        <ele>113</ele>
        <time>2017-10-26T20:23:19Z</time>
      </trkpt>
      <trkpt lat="49.36801" lon="1.48151">
        <ele>111</ele>
        <time>2017-10-26T20:25:19Z</time>
      </trkpt>
      <trkpt lat="49.36788" lon="1.48011">
        <ele>105</ele>
        <time>2017-10-26T20:27:19Z</time>
      </trkpt>
      <trkpt lat="49.36892" lon="1.47936">
        <ele>92</ele>
        <time>2017-10-26T20:29:19Z</time>
      </trkpt>
      <trkpt lat="49.36931" lon="1.47902">
        <ele>95</ele>
        <time>2017-10-26T20:31:19Z</time>
      </trkpt>
      <trkpt lat="49.36962" lon="1.47912">
        <ele>97</ele>
        <time>2017-10-26T20:33:19Z</time>
      </trkpt>
      <trkpt lat="49.36999" lon="1.4794">
        <ele>100</ele>
        <time>2017-10-26T20:35:19Z</time>
      </trkpt>
      <trkpt lat="49.37079" lon="1.47831">
        <ele>117</ele>
        <time>2017-10-26T20:37:19Z</time>
      </trkpt>
      <trkpt lat="49.37146" lon="1.47756">
        <ele>127</ele>
        <time>2017-10-26T20:39:19Z</time>
      </trkpt>
      <trkpt lat="49.37244" lon="1.47651">
        <ele>137</ele>
        <time>2017-10-26T20:41:19Z</time>
      </trkpt>
      <trkpt lat="49.37427" lon="1.47389">
        <ele>159</ele>
        <time>2017-10-26T20:43:19Z</time>
      </trkpt>
      <trkpt lat="49.37428" lon="1.47187">
        <ele>167</ele>
        <time>2017-10-26T20:45:19Z</time>
      </trkpt>
      <trkpt lat="49.37428" lon="1.47078">
        <ele>170</ele>
        <time>2017-10-26T20:47:19Z</time>
      </trkpt>
      <trkpt lat="49.37383" lon="1.46741">
        <ele>170</ele>
        <time>2017-10-26T20:49:19Z</time>
      </trkpt>
      <trkpt lat="49.37382" lon="1.46659">
        <ele>173</ele>
        <time>2017-10-26T20:51:19Z</time>
      </trkpt>
      <trkpt lat="49.3737" lon="1.46387">
        <ele>169</ele>
        <time>2017-10-26T20:53:19Z</time>
      </trkpt>
      <trkpt lat="49.37354" lon="1.46277">
        <ele>168</ele>
        <time>2017-10-26T20:55:19Z</time>
      </trkpt>
      <trkpt lat="49.37351" lon="1.462">
        <ele>166</ele>
        <time>2017-10-26T20:57:19Z</time>
      </trkpt>
      <trkpt lat="49.3736" lon="1.46149">
        <ele>163</ele>
        <time>2017-10-26T20:59:19Z</time>
      </trkpt>
      <trkpt lat="49.37378" lon="1.46061">
        <ele>154</ele>
        <time>2017-10-26T21:01:19Z</time>
      </trkpt>
      <trkpt lat="49.37335" lon="1.46086">
        <ele>157</ele>
        <time>2017-10-26T21:03:19Z</time>
      </trkpt>
      <trkpt lat="49.37195" lon="1.46082">
        <ele>169</ele>
        <time>2017-10-26T21:05:19Z</time>
      </trkpt>
      <trkpt lat="49.37191" lon="1.45726">
        <ele>155</ele>
        <time>2017-10-26T21:07:19Z</time>
      </trkpt>
      <trkpt lat="49.37084" lon="1.45659">
        <ele>161</ele>
        <time>2017-10-26T21:09:19Z</time>
      </trkpt>
      <trkpt lat="49.3705" lon="1.45612">
        <ele>156</ele>
        <time>2017-10-26T21:11:19Z</time>
      </trkpt>
      <trkpt lat="49.36953" lon="1.45689">
        <ele>165</ele>
        <time>2017-10-26T21:13:19Z</time>
      </trkpt>
      <trkpt lat="49.36929" lon="1.45745">
        <ele>168</ele>
        <time>2017-10-26T21:15:19Z</time>
      </trkpt>
      <trkpt lat="49.3689" lon="1.45807">
        <ele>169</ele>
        <time>2017-10-26T21:17:19Z</time>
      </trkpt>
      <trkpt lat="49.36827" lon="1.4587">
        <ele>166</ele>
        <time>2017-10-26T21:19:19Z</time>
      </trkpt>
      <trkpt lat="49.36798" lon="1.45825">
        <ele>163</ele>
        <time>2017-10-26T21:21:19Z</time>
      </trkpt>
      <trkpt lat="49.3654" lon="1.45627">
        <ele>151</ele>
        <time>2017-10-26T21:23:19Z</time>
      </trkpt>
      <trkpt lat="49.3647" lon="1.45595">
        <ele>150</ele>
        <time>2017-10-26T21:25:19Z</time>
      </trkpt>
      <trkpt lat="49.36343" lon="1.4537">
        <ele>143</ele>
        <time>2017-10-26T21:27:19Z</time>
      </trkpt>
      <trkpt lat="49.3615" lon="1.4511">
        <ele>123</ele>
        <time>2017-10-26T21:29:19Z</time>
      </trkpt>
      <trkpt lat="49.36115" lon="1.44692">
        <ele>131</ele>
        <time>2017-10-26T21:31:19Z</time>
      </trkpt>
      <trkpt lat="49.36076" lon="1.44147">
        <ele>131</ele>
        <time>2017-10-26T21:33:19Z</time>
      </trkpt>
      <trkpt lat="49.3555" lon="1.43975">
        <ele>105</ele>
        <time>2017-10-26T21:35:19Z</time>
      </trkpt>
      <trkpt lat="49.35539" lon="1.43947">
        <ele>101</ele>
        <time>2017-10-26T21:37:19Z</time>
      </trkpt>
      <trkpt lat="49.35567" lon="1.439">
        <ele>107</ele>
        <time>2017-10-26T21:39:19Z</time>
      </trkpt>
      <trkpt lat="49.3557" lon="1.43874">
        <ele>106</ele>
        <time>2017-10-26T21:41:19Z</time>
      </trkpt>
      <trkpt lat="49.35591" lon="1.43848">
        <ele>108</ele>
        <time>2017-10-26T21:43:19Z</time>
      </trkpt>
      <trkpt lat="49.35596" lon="1.43799">
        <ele>106</ele>
        <time>2017-10-26T21:45:19Z</time>
      </trkpt>
      <trkpt lat="49.35613" lon="1.43752">
        <ele>106</ele>
        <time>2017-10-26T21:47:19Z</time>
      </trkpt>
      <trkpt lat="49.35465" lon="1.43627">
        <ele>80</ele>
        <time>2017-10-26T21:49:19Z</time>
      </trkpt>
      <trkpt lat="49.36025" lon="1.43533">
        <ele>128</ele>
        <time>2017-10-26T21:51:19Z</time>
      </trkpt>
      <trkpt lat="49.36126" lon="1.43411">
        <ele>117</ele>
        <time>2017-10-26T21:53:19Z</time>
      </trkpt>
      <trkpt lat="49.36389" lon="1.43747">
        <ele>108</ele>
        <time>2017-10-26T21:55:19Z</time>
      </trkpt>
      <trkpt lat="49.3641" lon="1.43726">
        <ele>104</ele>
        <time>2017-10-26T21:57:19Z</time>
      </trkpt>
      <trkpt lat="49.36495" lon="1.43784">
        <ele>105</ele>
        <time>2017-10-26T21:59:19Z</time>
      </trkpt>
      <trkpt lat="49.36704" lon="1.43827">
        <ele>99</ele>
        <time>2017-10-26T22:01:19Z</time>
      </trkpt>
      <trkpt lat="49.36749" lon="1.43827">
        <ele>92</ele>
        <time>2017-10-26T22:03:19Z</time>
      </trkpt>
      <trkpt lat="49.36767" lon="1.43853">
        <ele>90</ele>
        <time>2017-10-26T22:05:19Z</time>
      </trkpt>
      <trkpt lat="49.36945" lon="1.43921">
        <ele>74</ele>
        <time>2017-10-26T22:07:19Z</time>
      </trkpt>
      <trkpt lat="49.37073" lon="1.43878">
        <ele>67</ele>
        <time>2017-10-26T22:09:19Z</time>
      </trkpt>
      <trkpt lat="49.37122" lon="1.43891">
        <ele>66</ele>
        <time>2017-10-26T22:11:19Z</time>
      </trkpt>
      <trkpt lat="49.37145" lon="1.43941">
        <ele>69</ele>
        <time>2017-10-26T22:13:19Z</time>
      </trkpt>
      <trkpt lat="49.37181" lon="1.43977">
        <ele>70</ele>
        <time>2017-10-26T22:15:19Z</time>
      </trkpt>
      <trkpt lat="49.37199" lon="1.43932">
        <ele>66</ele>
        <time>2017-10-26T22:17:19Z</time>
      </trkpt>
      <trkpt lat="49.37202" lon="1.43861">
        <ele>63</ele>
        <time>2017-10-26T22:19:19Z</time>
      </trkpt>
      <trkpt lat="49.37221" lon="1.43823">
        <ele>62</ele>
        <time>2017-10-26T22:21:19Z</time>
      </trkpt>
      <trkpt lat="49.37261" lon="1.43807">
        <ele>63</ele>
        <time>2017-10-26T22:23:19Z</time>
      </trkpt>
      <trkpt lat="49.37344" lon="1.43644">
        <ele>77</ele>
        <time>2017-10-26T22:25:19Z</time>
      </trkpt>
      <trkpt lat="49.37442" lon="1.43365">
        <ele>122</ele>
        <time>2017-10-26T22:27:19Z</time>
      </trkpt>
      <trkpt lat="49.37386" lon="1.43335">
        <ele>120</ele>
        <time>2017-10-26T22:29:19Z</time>
      </trkpt>
      <trkpt lat="49.37272" lon="1.43164">
        <ele>118</ele>
        <time>2017-10-26T22:31:19Z</time>
      </trkpt>
      <trkpt lat="49.37286" lon="1.43099">
        <ele>120</ele>
        <time>2017-10-26T22:33:19Z</time>
      </trkpt>
      <trkpt lat="49.37287" lon="1.43048">
        <ele>121</ele>
        <time>2017-10-26T22:35:19Z</time>
      </trkpt>
      <trkpt lat="49.3721" lon="1.42801">
        <ele>125</ele>
        <time>2017-10-26T22:37:19Z</time>
      </trkpt>
      <trkpt lat="49.37279" lon="1.4273">
        <ele>123</ele>
        <time>2017-10-26T22:39:19Z</time>
      </trkpt>
      <trkpt lat="49.37294" lon="1.42705">
        <ele>122</ele>
        <time>2017-10-26T22:41:19Z</time>
      </trkpt>
      <trkpt lat="49.37314" lon="1.4269">
        <ele>121</ele>
        <time>2017-10-26T22:43:19Z</time>
      </trkpt>
      <trkpt lat="49.37386" lon="1.4228">
        <ele>112</ele>
        <time>2017-10-26T22:45:19Z</time>
      </trkpt>
      <trkpt lat="49.37378" lon="1.42181">
        <ele>117</ele>
        <time>2017-10-26T22:47:19Z</time>
      </trkpt>
      <trkpt lat="49.3747" lon="1.42089">
        <ele>118</ele>
        <time>2017-10-26T22:49:19Z</time>
      </trkpt>
      <trkpt lat="49.37498" lon="1.42087">
        <ele>118</ele>
        <time>2017-10-26T22:51:19Z</time>
      </trkpt>
      <trkpt lat="49.37523" lon="1.42063">
        <ele>119</ele>
        <time>2017-10-26T22:53:19Z</time>
      </trkpt>
      <trkpt lat="49.37624" lon="1.42022">
        <ele>125</ele>
        <time>2017-10-26T22:55:19Z</time>
      </trkpt>
      <trkpt lat="49.3768" lon="1.42026">
        <ele>127</ele>
        <time>2017-10-26T22:57:19Z</time>
      </trkpt>
      <trkpt lat="49.37696" lon="1.42059">
        <ele>123</ele>
        <time>2017-10-26T22:59:19Z</time>
      </trkpt>
      <trkpt lat="49.37727" lon="1.42039">
        <ele>123</ele>
        <time>2017-10-26T23:01:19Z</time>
      </trkpt>
      <trkpt lat="49.37755" lon="1.42007">
        <ele>124</ele>
        <time>2017-10-26T23:03:19Z</time>
      </trkpt>
      <trkpt lat="49.37751" lon="1.41958">
        <ele>126</ele>
        <time>2017-10-26T23:05:19Z</time>
      </trkpt>
      <trkpt lat="49.37775" lon="1.41863">
        <ele>124</ele>
        <time>2017-10-26T23:07:19Z</time>
      </trkpt>
      <trkpt lat="49.37779" lon="1.41816">
        <ele>123</ele>
        <time>2017-10-26T23:09:19Z</time>
      </trkpt>
      <trkpt lat="49.37811" lon="1.4176">
        <ele>124</ele>
        <time>2017-10-26T23:11:19Z</time>
      </trkpt>
      <trkpt lat="49.37824" lon="1.41696">
        <ele>125</ele>
        <time>2017-10-26T23:13:19Z</time>
      </trkpt>
      <trkpt lat="49.37865" lon="1.41685">
        <ele>127</ele>
        <time>2017-10-26T23:15:19Z</time>
      </trkpt>
      <trkpt lat="49.37874" lon="1.41741">
        <ele>126</ele>
        <time>2017-10-26T23:17:19Z</time>
      </trkpt>
      <trkpt lat="49.37906" lon="1.41853">
        <ele>120</ele>
        <time>2017-10-26T23:19:19Z</time>
      </trkpt>
      <trkpt lat="49.38026" lon="1.41748">
        <ele>123</ele>
        <time>2017-10-26T23:21:19Z</time>
      </trkpt>
      <trkpt lat="49.38088" lon="1.41625">
        <ele>131</ele>
        <time>2017-10-26T23:23:19Z</time>
      </trkpt>
      <trkpt lat="49.38176" lon="1.41557">
        <ele>135</ele>
        <time>2017-10-26T23:25:19Z</time>
      </trkpt>
      <trkpt lat="49.3825" lon="1.41544">
        <ele>130</ele>
        <time>2017-10-26T23:27:19Z</time>
      </trkpt>
      <trkpt lat="49.3829" lon="1.41475">
        <ele>132</ele>
        <time>2017-10-26T23:29:19Z</time>
      </trkpt>
      <trkpt lat="49.38321" lon="1.4146">
        <ele>131</ele>
        <time>2017-10-26T23:31:19Z</time>
      </trkpt>
      <trkpt lat="49.38368" lon="1.41488">
        <ele>130</ele>
        <time>2017-10-26T23:33:19Z</time>
      </trkpt>
      <trkpt lat="49.38402" lon="1.41479">
        <ele>132</ele>
        <time>2017-10-26T23:35:19Z</time>
      </trkpt>
      <trkpt lat="49.38433" lon="1.41496">
        <ele>132</ele>
        <time>2017-10-26T23:37:19Z</time>
      </trkpt>
      <trkpt lat="49.38463" lon="1.4149">
        <ele>133</ele>
        <time>2017-10-26T23:39:19Z</time>
      </trkpt>
      <trkpt lat="49.38509" lon="1.41518">
        <ele>132</ele>
        <time>2017-10-26T23:41:19Z</time>
      </trkpt>
      <trkpt lat="49.38553" lon="1.41509">
        <ele>133</ele>
        <time>2017-10-26T23:43:19Z</time>
      </trkpt>
      <trkpt lat="49.38595" lon="1.41531">
        <ele>131</ele>
        <time>2017-10-26T23:45:19Z</time>
      </trkpt>
      <trkpt lat="49.3863" lon="1.41576">
        <ele>129</ele>
        <time>2017-10-26T23:47:19Z</time>
      </trkpt>
      <trkpt lat="49.38649" lon="1.4163">
        <ele>130</ele>
        <time>2017-10-26T23:49:19Z</time>
      </trkpt>
      <trkpt lat="49.38718" lon="1.41627">
        <ele>129</ele>
        <time>2017-10-26T23:51:19Z</time>
      </trkpt>
      <trkpt lat="49.38776" lon="1.41582">
        <ele>128</ele>
        <time>2017-10-26T23:53:19Z</time>
      </trkpt>
      <trkpt lat="49.38891" lon="1.41286">
        <ele>120</ele>
        <time>2017-10-26T23:55:19Z</time>
      </trkpt>
      <trkpt lat="49.38944" lon="1.41297">
        <ele>115</ele>
        <time>2017-10-26T23:57:19Z</time>
      </trkpt>
      <trkpt lat="49.3903" lon="1.41293">
        <ele>103</ele>
        <time>2017-10-26T23:59:19Z</time>
      </trkpt>
      <trkpt lat="49.39054" lon="1.41263">
        <ele>100</ele>
        <time>2017-10-27T00:01:19Z</time>
      </trkpt>
      <trkpt lat="49.39054" lon="1.41157">
        <ele>98</ele>
        <time>2017-10-27T00:03:19Z</time>
      </trkpt>
      <trkpt lat="49.39093" lon="1.40969">
        <ele>92</ele>
        <time>2017-10-27T00:05:19Z</time>
      </trkpt>
      <trkpt lat="49.39135" lon="1.40954">
        <ele>88</ele>
        <time>2017-10-27T00:07:19Z</time>
      </trkpt>
      <trkpt lat="49.39124" lon="1.41069">
        <ele>92</ele>
        <time>2017-10-27T00:09:19Z</time>
      </trkpt>
      <trkpt lat="49.39125" lon="1.41132">
        <ele>92</ele>
        <time>2017-10-27T00:11:19Z</time>
      </trkpt>
      <trkpt lat="49.39141" lon="1.41243">
        <ele>92</ele>
        <time>2017-10-27T00:13:19Z</time>
      </trkpt>
      <trkpt lat="49.39131" lon="1.41308">
        <ele>93</ele>
        <time>2017-10-27T00:15:19Z</time>
      </trkpt>
      <trkpt lat="49.39107" lon="1.41363">
        <ele>95</ele>
        <time>2017-10-27T00:17:19Z</time>
      </trkpt>
      <trkpt lat="49.38951" lon="1.4167">
        <ele>104</ele>
        <time>2017-10-27T00:19:19Z</time>
      </trkpt>
      <trkpt lat="49.38941" lon="1.41733">
        <ele>104</ele>
        <time>2017-10-27T00:21:19Z</time>
      </trkpt>
      <trkpt lat="49.38934" lon="1.4179">
        <ele>108</ele>
        <time>2017-10-27T00:23:19Z</time>
      </trkpt>
      <trkpt lat="49.38912" lon="1.42129">
        <ele>118</ele>
        <time>2017-10-27T00:25:19Z</time>
      </trkpt>
      <trkpt lat="49.38846" lon="1.42374">
        <ele>113</ele>
        <time>2017-10-27T00:27:19Z</time>
      </trkpt>
      <trkpt lat="49.38768" lon="1.4275">
        <ele>116</ele>
        <time>2017-10-27T00:29:19Z</time>
      </trkpt>
      <trkpt lat="49.3878" lon="1.42923">
        <ele>118</ele>
        <time>2017-10-27T00:31:19Z</time>
      </trkpt>
      <trkpt lat="49.38758" lon="1.42973">
        <ele>117</ele>
        <time>2017-10-27T00:33:19Z</time>
      </trkpt>
      <trkpt lat="49.38846" lon="1.43097">
        <ele>118</ele>
        <time>2017-10-27T00:35:19Z</time>
      </trkpt>
      <trkpt lat="49.38877" lon="1.43048">
        <ele>119</ele>
        <time>2017-10-27T00:37:19Z</time>
      </trkpt>
      <trkpt lat="49.38923" lon="1.43003">
        <ele>120</ele>
        <time>2017-10-27T00:39:19Z</time>
      </trkpt>
      <trkpt lat="49.3899" lon="1.42919">
        <ele>119</ele>
        <time>2017-10-27T00:41:19Z</time>
      </trkpt>
      <trkpt lat="49.39029" lon="1.42863">
        <ele>123</ele>
        <time>2017-10-27T00:43:19Z</time>
      </trkpt>
      <trkpt lat="49.39103" lon="1.42803">
        <ele>128</ele>
        <time>2017-10-27T00:45:19Z</time>
      </trkpt>
      <trkpt lat="49.39121" lon="1.4284">
        <ele>125</ele>
        <time>2017-10-27T00:47:19Z</time>
      </trkpt>
      <trkpt lat="49.39172" lon="1.42891">
        <ele>122</ele>
        <time>2017-10-27T00:49:19Z</time>
      </trkpt>
      <trkpt lat="49.39253" lon="1.43067">
        <ele>126</ele>
        <time>2017-10-27T00:51:19Z</time>
      </trkpt>
      <trkpt lat="49.39306" lon="1.4314">
        <ele>128</ele>
        <time>2017-10-27T00:53:19Z</time>
      </trkpt>
      <trkpt lat="49.39349" lon="1.43127">
        <ele>130</ele>
        <time>2017-10-27T00:55:19Z</time>
      </trkpt>
      <trkpt lat="49.39381" lon="1.4311">
        <ele>132</ele>
        <time>2017-10-27T00:57:19Z</time>
      </trkpt>
      <trkpt lat="49.39447" lon="1.43108">
        <ele>135</ele>
        <time>2017-10-27T00:59:19Z</time>
      </trkpt>
      <trkpt lat="49.39649" lon="1.43149">
        <ele>139</ele>
        <time>2017-10-27T01:01:19Z</time>
      </trkpt>
      <trkpt lat="49.39765" lon="1.43177">
        <ele>142</ele>
        <time>2017-10-27T01:03:19Z</time>
      </trkpt>
      <trkpt lat="49.39824" lon="1.4323">
        <ele>144</ele>
        <time>2017-10-27T01:05:19Z</time>
      </trkpt>
      <trkpt lat="49.39914" lon="1.43273">
        <ele>145</ele>
        <time>2017-10-27T01:07:19Z</time>
      </trkpt>
      <trkpt lat="49.39988" lon="1.43269">
        <ele>151</ele>
        <time>2017-10-27T01:09:19Z</time>
      </trkpt>
      <trkpt lat="49.40056" lon="1.43275">
        <ele>157</ele>
        <time>2017-10-27T01:11:19Z</time>
      </trkpt>
      <trkpt lat="49.40145" lon="1.43329">
        <ele>162</ele>
        <time>2017-10-27T01:13:19Z</time>
      </trkpt>
      <trkpt lat="49.40321" lon="1.43505">
        <ele>174</ele>
        <time>2017-10-27T01:15:19Z</time>
      </trkpt>
      <trkpt lat="49.40551" lon="1.43741">
        <ele>171</ele>
        <time>2017-10-27T01:17:19Z</time>
      </trkpt>
      <trkpt lat="49.4061" lon="1.4381">
        <ele>170</ele>
        <time>2017-10-27T01:19:19Z</time>
      </trkpt>
      <trkpt lat="49.40854" lon="1.44365">
        <ele>177</ele>
        <time>2017-10-27T01:21:19Z</time>
      </trkpt>
      <trkpt lat="49.41658" lon="1.45466">
        <ele>165</ele>
        <time>2017-10-27T01:23:19Z</time>
      </trkpt>
      <trkpt lat="49.4181" lon="1.45346">
        <ele>174</ele>
        <time>2017-10-27T01:25:19Z</time>
      </trkpt>
      <trkpt lat="49.41914" lon="1.45299">
        <ele>172</ele>
        <time>2017-10-27T01:27:19Z</time>
      </trkpt>
      <trkpt lat="49.42013" lon="1.45531">
        <ele>165</ele>
        <time>2017-10-27T01:29:19Z</time>
      </trkpt>
      <trkpt lat="49.42039" lon="1.45578">
        <ele>164</ele>
        <time>2017-10-27T01:31:19Z</time>
      </trkpt>
      <trkpt lat="49.42048" lon="1.45666">
        <ele>164</ele>
        <time>2017-10-27T01:33:19Z</time>
      </trkpt>
      <trkpt lat="49.4212" lon="1.4582">
        <ele>161</ele>
        <time>2017-10-27T01:35:19Z</time>
      </trkpt>
      <trkpt lat="49.42192" lon="1.45891">
        <ele>159</ele>
        <time>2017-10-27T01:37:19Z</time>
      </trkpt>
      <trkpt lat="49.42305" lon="1.46">
        <ele>154</ele>
        <time>2017-10-27T01:39:19Z</time>
      </trkpt>
      <trkpt lat="49.42338" lon="1.46041">
        <ele>152</ele>
        <time>2017-10-27T01:41:19Z</time>
      </trkpt>
      <trkpt lat="49.42327" lon="1.46063">
        <ele>152</ele>
        <time>2017-10-27T01:43:19Z</time>
      </trkpt>
      <trkpt lat="49.42394" lon="1.46161">
        <ele>152</ele>
        <time>2017-10-27T01:45:19Z</time>
      </trkpt>
      <trkpt lat="49.4252" lon="1.4635">
        <ele>163</ele>
        <time>2017-10-27T01:47:19Z</time>
      </trkpt>
      <trkpt lat="49.42564" lon="1.46462">
        <ele>164</ele>
        <time>2017-10-27T01:49:19Z</time>
      </trkpt>
      <trkpt lat="49.42573" lon="1.46543">
        <ele>168</ele>
        <time>2017-10-27T01:51:19Z</time>
      </trkpt>
      <trkpt lat="49.4264" lon="1.46747">
        <ele>166</ele>
        <time>2017-10-27T01:53:19Z</time>
      </trkpt>
      <trkpt lat="49.42635" lon="1.46807">
        <ele>166</ele>
        <time>2017-10-27T01:55:19Z</time>
      </trkpt>
      <trkpt lat="49.42588" lon="1.46917">
        <ele>169</ele>
        <time>2017-10-27T01:57:19Z</time>
      </trkpt>
      <trkpt lat="49.42515" lon="1.47033">
        <ele>165</ele>
        <time>2017-10-27T01:59:19Z</time>
      </trkpt>
      <trkpt lat="49.42427" lon="1.47112">
        <ele>165</ele>
        <time>2017-10-27T02:01:19Z</time>
      </trkpt>
      <trkpt lat="49.42292" lon="1.47211">
        <ele>162</ele>
        <time>2017-10-27T02:03:19Z</time>
      </trkpt>
      <trkpt lat="49.4225" lon="1.47243">
        <ele>160</ele>
        <time>2017-10-27T02:05:19Z</time>
      </trkpt>
      <trkpt lat="49.4214" lon="1.47286">
        <ele>160</ele>
        <time>2017-10-27T02:07:19Z</time>
      </trkpt>
      <trkpt lat="49.42077" lon="1.47322">
        <ele>159</ele>
        <time>2017-10-27T02:09:19Z</time>
      </trkpt>
      <trkpt lat="49.42044" lon="1.47374">
        <ele>158</ele>
        <time>2017-10-27T02:11:19Z</time>
      </trkpt>
      <trkpt lat="49.41937" lon="1.47442">
        <ele>161</ele>
        <time>2017-10-27T02:13:19Z</time>
      </trkpt>
      <trkpt lat="49.41731" lon="1.47479">
        <ele>154</ele>
        <time>2017-10-27T02:15:19Z</time>
      </trkpt>
      <trkpt lat="49.41415" lon="1.47689">
        <ele>159</ele>
        <time>2017-10-27T02:17:19Z</time>
      </trkpt>
      <trkpt lat="49.41355" lon="1.47745">
        <ele>158</ele>
        <time>2017-10-27T02:19:19Z</time>
      </trkpt>
      <trkpt lat="49.41322" lon="1.47758">
        <ele>155</ele>
        <time>2017-10-27T02:21:19Z</time>
      </trkpt>
      <trkpt lat="49.41238" lon="1.47852">
        <ele>149</ele>
        <time>2017-10-27T02:23:19Z</time>
      </trkpt>
      <trkpt lat="49.41092" lon="1.4785">
        <ele>145</ele>
        <time>2017-10-27T02:25:19Z</time>
      </trkpt>
      <trkpt lat="49.4105" lon="1.47917">
        <ele>151</ele>
        <time>2017-10-27T02:27:19Z</time>
      </trkpt>
      <trkpt lat="49.41005" lon="1.47951">
        <ele>151</ele>
        <time>2017-10-27T02:29:19Z</time>
      </trkpt>
      <trkpt lat="49.40981" lon="1.47929">
        <ele>147</ele>
        <time>2017-10-27T02:31:19Z</time>
      </trkpt>
      <trkpt lat="49.40939" lon="1.47936">
        <ele>143</ele>
        <time>2017-10-27T02:33:19Z</time>
      </trkpt>
      <trkpt lat="49.40903" lon="1.47964">
        <ele>140</ele>
        <time>2017-10-27T02:35:19Z</time>
      </trkpt>
      <trkpt lat="49.40861" lon="1.48045">
        <ele>136</ele>
        <time>2017-10-27T02:37:19Z</time>
      </trkpt>
      <trkpt lat="49.40836" lon="1.4812">
        <ele>133</ele>
        <time>2017-10-27T02:39:19Z</time>
      </trkpt>
      <trkpt lat="49.40744" lon="1.48236">
        <ele>119</ele>
        <time>2017-10-27T02:41:19Z</time>
      </trkpt>
      <trkpt lat="49.40723" lon="1.4823">
        <ele>114</ele>
        <time>2017-10-27T02:43:19Z</time>
      </trkpt>
      <trkpt lat="49.40681" lon="1.48271">
        <ele>108</ele>
        <time>2017-10-27T02:45:19Z</time>
      </trkpt>
      <trkpt lat="49.40494" lon="1.48322">
        <ele>93</ele>
        <time>2017-10-27T02:47:19Z</time>
      </trkpt>
      <trkpt lat="49.405" lon="1.48384">
        <ele>93</ele>
        <time>2017-10-27T02:49:19Z</time>
      </trkpt>
      <trkpt lat="49.41121" lon="1.495">
        <ele>95</ele>
        <time>2017-10-27T02:51:19Z</time>
      </trkpt>
      <trkpt lat="49.41099" lon="1.49539">
        <ele>93</ele>
        <time>2017-10-27T02:53:19Z</time>
      </trkpt>
      <trkpt lat="49.41097" lon="1.49577">
        <ele>93</ele>
        <time>2017-10-27T02:55:19Z</time>
      </trkpt>
      <trkpt lat="49.41121" lon="1.49657">
        <ele>95</ele>
        <time>2017-10-27T02:57:19Z</time>
      </trkpt>
      <trkpt lat="49.41152" lon="1.497">
        <ele>96</ele>
        <time>2017-10-27T02:59:19Z</time>
      </trkpt>
      <trkpt lat="49.41227" lon="1.49773">
        <ele>95</ele>
        <time>2017-10-27T03:01:19Z</time>
      </trkpt>
      <trkpt lat="49.41273" lon="1.49837">
        <ele>96</ele>
        <time>2017-10-27T03:03:19Z</time>
      </trkpt>
      <trkpt lat="49.41295" lon="1.4988">
        <ele>98</ele>
        <time>2017-10-27T03:05:19Z</time>
      </trkpt>
      <trkpt lat="49.41333" lon="1.49869">
        <ele>98</ele>
        <time>2017-10-27T03:07:19Z</time>
      </trkpt>
      <trkpt lat="49.41355" lon="1.49891">
        <ele>99</ele>
        <time>2017-10-27T03:09:19Z</time>
      </trkpt>
      <trkpt lat="49.41367" lon="1.4994">
        <ele>98</ele>
        <time>2017-10-27T03:11:19Z</time>
      </trkpt>
      <trkpt lat="49.414" lon="1.49989">
        <ele>97</ele>
        <time>2017-10-27T03:13:19Z</time>
      </trkpt>
      <trkpt lat="49.41457" lon="1.50219">
        <ele>98</ele>
        <time>2017-10-27T03:15:19Z</time>
      </trkpt>
      <trkpt lat="49.41467" lon="1.50305">
        <ele>100</ele>
        <time>2017-10-27T03:17:19Z</time>
      </trkpt>
      <trkpt lat="49.41445" lon="1.50419">
        <ele>100</ele>
        <time>2017-10-27T03:19:19Z</time>
      </trkpt>
      <trkpt lat="49.41461" lon="1.505">
        <ele>99</ele>
        <time>2017-10-27T03:21:19Z</time>
      </trkpt>
      <trkpt lat="49.41503" lon="1.50549">
        <ele>101</ele>
        <time>2017-10-27T03:23:19Z</time>
      </trkpt>
      <trkpt lat="49.41505" lon="1.50588">
        <ele>102</ele>
        <time>2017-10-27T03:25:19Z</time>
      </trkpt>
      <trkpt lat="49.41386" lon="1.5074">
        <ele>123</ele>
        <time>2017-10-27T03:27:19Z</time>
      </trkpt>
      <trkpt lat="49.41329" lon="1.50966">
        <ele>139</ele>
        <time>2017-10-27T03:29:19Z</time>
      </trkpt>
      <trkpt lat="49.41319" lon="1.51037">
        <ele>143</ele>
        <time>2017-10-27T03:31:19Z</time>
      </trkpt>
      <trkpt lat="49.4127" lon="1.51133">
        <ele>151</ele>
        <time>2017-10-27T03:33:19Z</time>
      </trkpt>
      <trkpt lat="49.41193" lon="1.50869">
        <ele>153</ele>
        <time>2017-10-27T03:35:19Z</time>
      </trkpt>
      <trkpt lat="49.41146" lon="1.50683">
        <ele>153</ele>
        <time>2017-10-27T03:37:19Z</time>
      </trkpt>
      <trkpt lat="49.41131" lon="1.50573">
        <ele>154</ele>
        <time>2017-10-27T03:39:19Z</time>
      </trkpt>
      <trkpt lat="49.41112" lon="1.50524">
        <ele>156</ele>
        <time>2017-10-27T03:41:19Z</time>
      </trkpt>
      <trkpt lat="49.41038" lon="1.50457">
        <ele>155</ele>
        <time>2017-10-27T03:43:19Z</time>
      </trkpt>
      <trkpt lat="49.40999" lon="1.50406">
        <ele>151</ele>
        <time>2017-10-27T03:45:19Z</time>
      </trkpt>
      <trkpt lat="49.40955" lon="1.50301">
        <ele>145</ele>
        <time>2017-10-27T03:47:19Z</time>
      </trkpt>
      <trkpt lat="49.40914" lon="1.5017">
        <ele>140</ele>
        <time>2017-10-27T03:49:19Z</time>
      </trkpt>
      <trkpt lat="49.40881" lon="1.50103">
        <ele>143</ele>
        <time>2017-10-27T03:51:19Z</time>
      </trkpt>
      <trkpt lat="49.40832" lon="1.49947">
        <ele>144</ele>
        <time>2017-10-27T03:53:19Z</time>
      </trkpt>
      <trkpt lat="49.40808" lon="1.49743">
        <ele>137</ele>
        <time>2017-10-27T03:55:19Z</time>
      </trkpt>
      <trkpt lat="49.40803" lon="1.49676">
        <ele>134</ele>
        <time>2017-10-27T03:57:19Z</time>
      </trkpt>
      <trkpt lat="49.40698" lon="1.49361">
        <ele>136</ele>
        <time>2017-10-27T03:59:19Z</time>
      </trkpt>
      <trkpt lat="49.40611" lon="1.49187">
        <ele>125</ele>
        <time>2017-10-27T04:01:19Z</time>
      </trkpt>
      <trkpt lat="49.40519" lon="1.49047">
        <ele>107</ele>
        <time>2017-10-27T04:03:19Z</time>
      </trkpt>
      <trkpt lat="49.40498" lon="1.48906">
        <ele>93</ele>
        <time>2017-10-27T04:05:19Z</time>
      </trkpt>
      <trkpt lat="49.40456" lon="1.49148">
        <ele>110</ele>
        <time>2017-10-27T04:07:19Z</time>
      </trkpt>
      <trkpt lat="49.40361" lon="1.49292">
        <ele>115</ele>
        <time>2017-10-27T04:09:19Z</time>
      </trkpt>
      <trkpt lat="49.40311" lon="1.49305">
        <ele>111</ele>
        <time>2017-10-27T04:11:19Z</time>
      </trkpt>
      <trkpt lat="49.40287" lon="1.49339">
        <ele>112</ele>
        <time>2017-10-27T04:13:19Z</time>
      </trkpt>
      <trkpt lat="49.40283" lon="1.49401">
        <ele>113</ele>
        <time>2017-10-27T04:15:19Z</time>
      </trkpt>
      <trkpt lat="49.40324" lon="1.49474">
        <ele>116</ele>
        <time>2017-10-27T04:17:19Z</time>
      </trkpt>
      <trkpt lat="49.40359" lon="1.49565">
        <ele>122</ele>
        <time>2017-10-27T04:19:19Z</time>
      </trkpt>
      <trkpt lat="49.40359" lon="1.49661">
        <ele>125</ele>
        <time>2017-10-27T04:21:19Z</time>
      </trkpt>
      <trkpt lat="49.40328" lon="1.49753">
        <ele>125</ele>
        <time>2017-10-27T04:23:19Z</time>
      </trkpt>
      <trkpt lat="49.40145" lon="1.49974">
        <ele>133</ele>
        <time>2017-10-27T04:25:19Z</time>
      </trkpt>
      <trkpt lat="49.40123" lon="1.50056">
        <ele>139</ele>
        <time>2017-10-27T04:27:19Z</time>
      </trkpt>
      <trkpt lat="49.40042" lon="1.5">
        <ele>141</ele>
        <time>2017-10-27T04:29:19Z</time>
      </trkpt>
      <trkpt lat="49.3999" lon="1.49974">
        <ele>150</ele>
        <time>2017-10-27T04:31:19Z</time>
      </trkpt>
      <trkpt lat="49.39979" lon="1.49912">
        <ele>151</ele>
        <time>2017-10-27T04:33:19Z</time>
      </trkpt>
      <trkpt lat="49.40086" lon="1.49695">
        <ele>143</ele>
        <time>2017-10-27T04:35:19Z</time>
      </trkpt>
      <trkpt lat="49.40107" lon="1.49644">
        <ele>142</ele>
        <time>2017-10-27T04:37:19Z</time>
      </trkpt>
      <trkpt lat="49.40142" lon="1.49565">
        <ele>135</ele>
        <time>2017-10-27T04:39:19Z</time>
      </trkpt>
      <trkpt lat="49.40145" lon="1.49459">
        <ele>127</ele>
        <time>2017-10-27T04:41:19Z</time>
      </trkpt>
      <trkpt lat="49.4005" lon="1.49453">
        <ele>143</ele>
        <time>2017-10-27T04:43:19Z</time>
      </trkpt>
      <trkpt lat="49.40032" lon="1.49427">
        <ele>144</ele>
        <time>2017-10-27T04:45:19Z</time>
      </trkpt>
      <trkpt lat="49.40046" lon="1.4932">
        <ele>140</ele>
        <time>2017-10-27T04:47:19Z</time>
      </trkpt>
      <trkpt lat="49.40044" lon="1.49251">
        <ele>143</ele>
        <time>2017-10-27T04:49:19Z</time>
      </trkpt>
      <trkpt lat="49.39997" lon="1.48998">
        <ele>152</ele>
        <time>2017-10-27T04:51:19Z</time>
      </trkpt>
      <trkpt lat="49.39891" lon="1.48957">
        <ele>154</ele>
        <time>2017-10-27T04:53:19Z</time>
      </trkpt>
      <trkpt lat="49.39882" lon="1.48867">
        <ele>153</ele>
        <time>2017-10-27T04:55:19Z</time>
      </trkpt>
      <trkpt lat="49.39835" lon="1.4876">
        <ele>157</ele>
        <time>2017-10-27T04:57:19Z</time>
      </trkpt>
      <trkpt lat="49.39836" lon="1.48698">
        <ele>151</ele>
        <time>2017-10-27T04:59:19Z</time>
      </trkpt>
      <trkpt lat="49.39928" lon="1.48511">
        <ele>137</ele>
        <time>2017-10-27T05:01:19Z</time>
      </trkpt>
      <trkpt lat="49.39935" lon="1.48438">
        <ele>124</ele>
        <time>2017-10-27T05:03:19Z</time>
      </trkpt>
      <trkpt lat="49.39986" lon="1.48363">
        <ele>121</ele>
        <time>2017-10-27T05:05:19Z</time>
      </trkpt>
      <trkpt lat="49.40025" lon="1.48264">
        <ele>114</ele>
        <time>2017-10-27T05:07:19Z</time>
      </trkpt>
      <trkpt lat="49.40028" lon="1.48187">
        <ele>110</ele>
        <time>2017-10-27T05:09:19Z</time>
      </trkpt>
      <trkpt lat="49.40023" lon="1.48101">
        <ele>107</ele>
        <time>2017-10-27T05:11:19Z</time>
      </trkpt>
      <trkpt lat="49.39975" lon="1.48013">
        <ele>105</ele>
        <time>2017-10-27T05:13:19Z</time>
      </trkpt>
      <trkpt lat="49.39966" lon="1.47846">
        <ele>102</ele>
        <time>2017-10-27T05:15:19Z</time>
      </trkpt>
      <trkpt lat="49.39868" lon="1.47685">
        <ele>107</ele>
        <time>2017-10-27T05:17:19Z</time>
      </trkpt>
      <trkpt lat="49.39814" lon="1.47728">
        <ele>113</ele>
        <time>2017-10-27T05:19:19Z</time>
      </trkpt>
      <trkpt lat="49.39796" lon="1.47687">
        <ele>114</ele>
        <time>2017-10-27T05:21:19Z</time>
      </trkpt>
      <trkpt lat="49.39803" lon="1.47573">
        <ele>108</ele>
        <time>2017-10-27T05:23:19Z</time>
      </trkpt>
      <trkpt lat="49.3978" lon="1.47569">
        <ele>108</ele>
        <time>2017-10-27T05:25:19Z</time>
      </trkpt>
      <trkpt lat="49.39793" lon="1.47533">
        <ele>107</ele>
        <time>2017-10-27T05:27:19Z</time>
      </trkpt>
      <trkpt lat="49.39792" lon="1.47468">
        <ele>105</ele>
        <time>2017-10-27T05:29:19Z</time>
      </trkpt>
      <trkpt lat="49.39757" lon="1.47369">
        <ele>107</ele>
        <time>2017-10-27T05:31:19Z</time>
      </trkpt>
      <trkpt lat="49.39733" lon="1.47245">
        <ele>116</ele>
        <time>2017-10-27T05:33:19Z</time>
      </trkpt>
      <trkpt lat="49.39734" lon="1.47194">
        <ele>116</ele>
        <time>2017-10-27T05:35:19Z</time>
      </trkpt>
      <trkpt lat="49.39709" lon="1.47112">
        <ele>117</ele>
        <time>2017-10-27T05:37:19Z</time>
      </trkpt>
      <trkpt lat="49.39706" lon="1.4706">
        <ele>114</ele>
        <time>2017-10-27T05:39:19Z</time>
      </trkpt>
      <trkpt lat="49.39671" lon="1.46861">
        <ele>103</ele>
        <time>2017-10-27T05:41:19Z</time>
      </trkpt>
      <trkpt lat="49.39651" lon="1.46803">
        <ele>96</ele>
        <time>2017-10-27T05:43:19Z</time>
      </trkpt>
      <trkpt lat="49.3963" lon="1.46766">
        <ele>93</ele>
        <time>2017-10-27T05:45:19Z</time>
      </trkpt>
      <trkpt lat="49.39691" lon="1.46685">
        <ele>82</ele>
        <time>2017-10-27T05:47:19Z</time>
      </trkpt>
      <trkpt lat="49.39765" lon="1.46719">
        <ele>81</ele>
        <time>2017-10-27T05:49:19Z</time>
      </trkpt>
      <trkpt lat="49.39804" lon="1.46721">
        <ele>82</ele>
        <time>2017-10-27T05:51:19Z</time>
      </trkpt>
      <trkpt lat="49.39829" lon="1.46691">
        <ele>82</ele>
        <time>2017-10-27T05:53:19Z</time>
      </trkpt>
      <trkpt lat="49.3981" lon="1.46627">
        <ele>82</ele>
        <time>2017-10-27T05:55:19Z</time>
      </trkpt>
      <trkpt lat="49.39752" lon="1.46507">
        <ele>81</ele>
        <time>2017-10-27T05:57:19Z</time>
      </trkpt>
      <trkpt lat="49.39736" lon="1.46434">
        <ele>83</ele>
        <time>2017-10-27T05:59:19Z</time>
      </trkpt>
      <trkpt lat="49.39684" lon="1.46348">
        <ele>84</ele>
        <time>2017-10-27T06:01:19Z</time>
      </trkpt>
      <trkpt lat="49.39655" lon="1.46312">
        <ele>84</ele>
        <time>2017-10-27T06:03:19Z</time>
      </trkpt>
      <trkpt lat="49.39607" lon="1.46279">
        <ele>83</ele>
        <time>2017-10-27T06:05:19Z</time>
      </trkpt>
      <trkpt lat="49.39589" lon="1.46252">
        <ele>83</ele>
        <time>2017-10-27T06:07:19Z</time>
      </trkpt>
      <trkpt lat="49.39539" lon="1.46151">
        <ele>85</ele>
        <time>2017-10-27T06:09:19Z</time>
      </trkpt>
      <trkpt lat="49.39521" lon="1.46088">
        <ele>85</ele>
        <time>2017-10-27T06:11:19Z</time>
      </trkpt>
      <trkpt lat="49.39521" lon="1.45983">
        <ele>89</ele>
        <time>2017-10-27T06:13:19Z</time>
      </trkpt>
      <trkpt lat="49.39466" lon="1.45754">
        <ele>84</ele>
        <time>2017-10-27T06:15:19Z</time>
      </trkpt>
      <trkpt lat="49.39463" lon="1.45649">
        <ele>85</ele>
        <time>2017-10-27T06:17:19Z</time>
      </trkpt>
      <trkpt lat="49.39424" lon="1.45505">
        <ele>86</ele>
        <time>2017-10-27T06:19:19Z</time>
      </trkpt>
      <trkpt lat="49.39244" lon="1.45013">
        <ele>87</ele>
        <time>2017-10-27T06:21:19Z</time>
      </trkpt>
      <trkpt lat="49.39226" lon="1.44919">
        <ele>91</ele>
        <time>2017-10-27T06:23:19Z</time>
      </trkpt>
      <trkpt lat="49.39218" lon="1.44764">
        <ele>107</ele>
        <time>2017-10-27T06:25:19Z</time>
      </trkpt>
      <trkpt lat="49.39206" lon="1.44692">
        <ele>117</ele>
        <time>2017-10-27T06:27:19Z</time>
      </trkpt>
      <trkpt lat="49.39081" lon="1.4437">
        <ele>138</ele>
        <time>2017-10-27T06:29:19Z</time>
      </trkpt>
      <trkpt lat="49.39035" lon="1.44265">
        <ele>140</ele>
        <time>2017-10-27T06:31:19Z</time>
      </trkpt>
      <trkpt lat="49.39011" lon="1.44071">
        <ele>138</ele>
        <time>2017-10-27T06:33:19Z</time>
      </trkpt>
      <trkpt lat="49.39015" lon="1.44011">
        <ele>137</ele>
        <time>2017-10-27T06:35:19Z</time>
      </trkpt>
      <trkpt lat="49.39264" lon="1.44007">
        <ele>144</ele>
        <time>2017-10-27T06:37:19Z</time>
      </trkpt>
      <trkpt lat="49.39468" lon="1.43943">
        <ele>148</ele>
        <time>2017-10-27T06:39:19Z</time>
      </trkpt>
      <trkpt lat="49.40102" lon="1.43593">
        <ele>158</ele>
        <time>2017-10-27T06:41:19Z</time>
      </trkpt>
      <trkpt lat="49.40125" lon="1.4355">
        <ele>156</ele>
        <time>2017-10-27T06:43:19Z</time>
      </trkpt>
      <trkpt lat="49.40237" lon="1.43421">
        <ele>167</ele>
        <time>2017-10-27T06:45:19Z</time>
      </trkpt>
      <trkpt lat="49.40352" lon="1.43344">
        <ele>168</ele>
        <time>2017-10-27T06:47:19Z</time>
      </trkpt>
      <trkpt lat="49.40445" lon="1.43192">
        <ele>162</ele>
        <time>2017-10-27T06:49:19Z</time>
      </trkpt>
      <trkpt lat="49.40459" lon="1.43138">
        <ele>160</ele>
        <time>2017-10-27T06:51:19Z</time>
      </trkpt>
      <trkpt lat="49.40483" lon="1.43108">
        <ele>160</ele>
        <time>2017-10-27T06:53:19Z</time>
      </trkpt>
      <trkpt lat="49.40441" lon="1.43052">
        <ele>159</ele>
        <time>2017-10-27T06:55:19Z</time>
      </trkpt>
      <trkpt lat="49.40347" lon="1.42979">
        <ele>159</ele>
        <time>2017-10-27T06:57:19Z</time>
      </trkpt>
      <trkpt lat="49.40328" lon="1.42928">
        <ele>161</ele>
        <time>2017-10-27T06:59:19Z</time>
      </trkpt>
      <trkpt lat="49.40328" lon="1.4287">
        <ele>163</ele>
        <time>2017-10-27T07:01:19Z</time>
      </trkpt>
      <trkpt lat="49.40346" lon="1.42805">
        <ele>164</ele>
        <time>2017-10-27T07:03:19Z</time>
      </trkpt>
      <trkpt lat="49.40391" lon="1.42715">
        <ele>164</ele>
        <time>2017-10-27T07:05:19Z</time>
      </trkpt>
      <trkpt lat="49.40435" lon="1.42662">
        <ele>164</ele>
        <time>2017-10-27T07:07:19Z</time>
      </trkpt>
      <trkpt lat="49.40467" lon="1.41971">
        <ele>150</ele>
        <time>2017-10-27T07:09:19Z</time>
      </trkpt>
      <trkpt lat="49.40399" lon="1.41168">
        <ele>140</ele>
        <time>2017-10-27T07:11:19Z</time>
      </trkpt>
      <trkpt lat="49.40359" lon="1.41112">
        <ele>139</ele>
        <time>2017-10-27T07:13:19Z</time>
      </trkpt>
      <trkpt lat="49.40113" lon="1.41053">
        <ele>139</ele>
        <time>2017-10-27T07:15:19Z</time>
      </trkpt>
      <trkpt lat="49.39912" lon="1.41076">
        <ele>136</ele>
        <time>2017-10-27T07:17:19Z</time>
      </trkpt>
      <trkpt lat="49.39881" lon="1.41024">
        <ele>135</ele>
        <time>2017-10-27T07:19:19Z</time>
      </trkpt>
      <trkpt lat="49.39866" lon="1.40868">
        <ele>131</ele>
        <time>2017-10-27T07:21:19Z</time>
      </trkpt>
      <trkpt lat="49.39845" lon="1.40829">
        <ele>128</ele>
        <time>2017-10-27T07:23:19Z</time>
      </trkpt>
      <trkpt lat="49.39758" lon="1.40833">
        <ele>114</ele>
        <time>2017-10-27T07:25:19Z</time>
      </trkpt>
      <trkpt lat="49.39741" lon="1.4078">
        <ele>107</ele>
        <time>2017-10-27T07:27:19Z</time>
      </trkpt>
      <trkpt lat="49.3969" lon="1.40795">
        <ele>99</ele>
        <time>2017-10-27T07:29:19Z</time>
      </trkpt>
      <trkpt lat="49.39648" lon="1.40743">
        <ele>91</ele>
        <time>2017-10-27T07:31:19Z</time>
      </trkpt>
      <trkpt lat="49.39627" lon="1.40737">
        <ele>89</ele>
        <time>2017-10-27T07:33:19Z</time>
      </trkpt>
      <trkpt lat="49.39597" lon="1.40715">
        <ele>85</ele>
        <time>2017-10-27T07:35:19Z</time>
      </trkpt>
      <trkpt lat="49.39632" lon="1.40861">
        <ele>93</ele>
        <time>2017-10-27T07:37:19Z</time>
      </trkpt>
      <trkpt lat="49.39637" lon="1.40902">
        <ele>95</ele>
        <time>2017-10-27T07:39:19Z</time>
      </trkpt>
      <trkpt lat="49.39582" lon="1.41134">
        <ele>99</ele>
        <time>2017-10-27T07:41:19Z</time>
      </trkpt>
      <trkpt lat="49.39593" lon="1.41211">
        <ele>101</ele>
        <time>2017-10-27T07:43:19Z</time>
      </trkpt>
      <trkpt lat="49.39635" lon="1.41269">
        <ele>107</ele>
        <time>2017-10-27T07:45:19Z</time>
      </trkpt>
      <trkpt lat="49.39603" lon="1.41381">
        <ele>117</ele>
        <time>2017-10-27T07:47:19Z</time>
      </trkpt>
      <trkpt lat="49.39411" lon="1.41271">
        <ele>128</ele>
        <time>2017-10-27T07:49:19Z</time>
      </trkpt>
      <trkpt lat="49.3953" lon="1.41595">
        <ele>137</ele>
        <time>2017-10-27T07:51:19Z</time>
      </trkpt>
      <trkpt lat="49.39608" lon="1.41716">
        <ele>134</ele>
        <time>2017-10-27T07:53:19Z</time>
      </trkpt>
      <trkpt lat="49.3973" lon="1.42017">
        <ele>140</ele>
        <time>2017-10-27T07:55:19Z</time>
      </trkpt>
      <trkpt lat="49.39239" lon="1.42395">
        <ele>119</ele>
        <time>2017-10-27T07:57:19Z</time>
      </trkpt>
      <trkpt lat="49.39211" lon="1.42692">
        <ele>123</ele>
        <time>2017-10-27T07:59:19Z</time>
      </trkpt>
      <trkpt lat="49.39109" lon="1.42799">
        <ele>127</ele>
        <time>2017-10-27T08:01:19Z</time>
      </trkpt>
      <trkpt lat="49.39123" lon="1.42838">
        <ele>125</ele>
        <time>2017-10-27T08:03:19Z</time>
      </trkpt>
      <trkpt lat="49.39173" lon="1.42895">
        <ele>122</ele>
        <time>2017-10-27T08:05:19Z</time>
      </trkpt>
      <trkpt lat="49.39254" lon="1.43071">
        <ele>126</ele>
        <time>2017-10-27T08:07:19Z</time>
      </trkpt>
      <trkpt lat="49.39295" lon="1.43129">
        <ele>128</ele>
        <time>2017-10-27T08:09:19Z</time>
      </trkpt>
      <trkpt lat="49.39348" lon="1.43119">
        <ele>130</ele>
        <time>2017-10-27T08:11:19Z</time>
      </trkpt>
      <trkpt lat="49.3942" lon="1.43102">
        <ele>134</ele>
        <time>2017-10-27T08:13:19Z</time>
      </trkpt>
      <trkpt lat="49.39419" lon="1.43106">
        <ele>134</ele>
        <time>2017-10-27T08:15:19Z</time>
      </trkpt>
      <trkpt lat="49.39466" lon="1.4317">
        <ele>134</ele>
        <time>2017-10-27T08:17:19Z</time>
      </trkpt>
      <trkpt lat="49.39521" lon="1.43355">
        <ele>137</ele>
        <time>2017-10-27T08:19:19Z</time>
      </trkpt>
      <trkpt lat="49.39535" lon="1.43432">
        <ele>145</ele>
        <time>2017-10-27T08:21:19Z</time>
      </trkpt>
      <trkpt lat="49.39561" lon="1.43535">
        <ele>147</ele>
        <time>2017-10-27T08:23:19Z</time>
      </trkpt>
      <trkpt lat="49.39549" lon="1.43838">
        <ele>156</ele>
        <time>2017-10-27T08:25:19Z</time>
      </trkpt>
      <trkpt lat="49.39556" lon="1.44112">
        <ele>162</ele>
        <time>2017-10-27T08:27:19Z</time>
      </trkpt>
      <trkpt lat="49.39546" lon="1.44267">
        <ele>157</ele>
        <time>2017-10-27T08:29:19Z</time>
      </trkpt>
      <trkpt lat="49.39504" lon="1.44292">
        <ele>156</ele>
        <time>2017-10-27T08:31:19Z</time>
      </trkpt>
      <trkpt lat="49.39547" lon="1.44353">
        <ele>157</ele>
        <time>2017-10-27T08:33:19Z</time>
      </trkpt>
      <trkpt lat="49.39593" lon="1.44606">
        <ele>163</ele>
        <time>2017-10-27T08:35:19Z</time>
      </trkpt>
      <trkpt lat="49.39577" lon="1.44664">
        <ele>163</ele>
        <time>2017-10-27T08:37:19Z</time>
      </trkpt>
      <trkpt lat="49.39596" lon="1.44799">
        <ele>165</ele>
        <time>2017-10-27T08:39:19Z</time>
      </trkpt>
      <trkpt lat="49.39596" lon="1.44891">
        <ele>165</ele>
        <time>2017-10-27T08:41:19Z</time>
      </trkpt>
      <trkpt lat="49.39589" lon="1.45003">
        <ele>162</ele>
        <time>2017-10-27T08:43:19Z</time>
      </trkpt>
      <trkpt lat="49.3961" lon="1.45101">
        <ele>160</ele>
        <time>2017-10-27T08:45:19Z</time>
      </trkpt>
      <trkpt lat="49.39645" lon="1.45174">
        <ele>160</ele>
        <time>2017-10-27T08:47:19Z</time>
      </trkpt>
      <trkpt lat="49.39673" lon="1.45359">
        <ele>154</ele>
        <time>2017-10-27T08:49:19Z</time>
      </trkpt>
      <trkpt lat="49.39694" lon="1.45417">
        <ele>152</ele>
        <time>2017-10-27T08:51:19Z</time>
      </trkpt>
      <trkpt lat="49.39786" lon="1.45543">
        <ele>151</ele>
        <time>2017-10-27T08:53:19Z</time>
      </trkpt>
      <trkpt lat="49.39842" lon="1.45599">
        <ele>153</ele>
        <time>2017-10-27T08:55:19Z</time>
      </trkpt>
      <trkpt lat="49.39875" lon="1.45687">
        <ele>153</ele>
        <time>2017-10-27T08:57:19Z</time>
      </trkpt>
      <trkpt lat="49.39916" lon="1.45741">
        <ele>158</ele>
        <time>2017-10-27T08:59:19Z</time>
      </trkpt>
      <trkpt lat="49.40012" lon="1.45782">
        <ele>157</ele>
        <time>2017-10-27T09:01:19Z</time>
      </trkpt>
      <trkpt lat="49.40042" lon="1.45779">
        <ele>157</ele>
        <time>2017-10-27T09:03:19Z</time>
      </trkpt>
      <trkpt lat="49.40058" lon="1.45777">
        <ele>157</ele>
        <time>2017-10-27T09:05:19Z</time>
      </trkpt>
      <trkpt lat="49.40002" lon="1.45927">
        <ele>144</ele>
        <time>2017-10-27T09:07:19Z</time>
      </trkpt>
      <trkpt lat="49.39994" lon="1.45994">
        <ele>138</ele>
        <time>2017-10-27T09:09:19Z</time>
      </trkpt>
      <trkpt lat="49.39963" lon="1.4603">
        <ele>134</ele>
        <time>2017-10-27T09:11:19Z</time>
      </trkpt>
      <trkpt lat="49.39785" lon="1.46168">
        <ele>108</ele>
        <time>2017-10-27T09:13:19Z</time>
      </trkpt>
      <trkpt lat="49.39759" lon="1.46204">
        <ele>103</ele>
        <time>2017-10-27T09:15:19Z</time>
      </trkpt>
      <trkpt lat="49.39762" lon="1.46258">
        <ele>102</ele>
        <time>2017-10-27T09:17:19Z</time>
      </trkpt>
      <trkpt lat="49.39786" lon="1.46331">
        <ele>100</ele>
        <time>2017-10-27T09:19:19Z</time>
      </trkpt>
      <trkpt lat="49.3981" lon="1.46361">
        <ele>102</ele>
        <time>2017-10-27T09:21:19Z</time>
      </trkpt>
      <trkpt lat="49.39889" lon="1.46636">
        <ele>87</ele>
        <time>2017-10-27T09:23:19Z</time>
      </trkpt>
      <trkpt lat="49.3994" lon="1.46655">
        <ele>93</ele>
        <time>2017-10-27T09:25:19Z</time>
      </trkpt>
      <trkpt lat="49.40008" lon="1.46698">
        <ele>101</ele>
        <time>2017-10-27T09:27:19Z</time>
      </trkpt>
      <trkpt lat="49.40032" lon="1.4673">
        <ele>105</ele>
        <time>2017-10-27T09:29:19Z</time>
      </trkpt>
      <trkpt lat="49.40082" lon="1.46747">
        <ele>114</ele>
        <time>2017-10-27T09:31:19Z</time>
      </trkpt>
      <trkpt lat="49.40164" lon="1.46842">
        <ele>125</ele>
        <time>2017-10-27T09:33:19Z</time>
      </trkpt>
      <trkpt lat="49.40216" lon="1.46934">
        <ele>133</ele>
        <time>2017-10-27T09:35:19Z</time>
      </trkpt>
      <trkpt lat="49.40271" lon="1.47003">
        <ele>140</ele>
        <time>2017-10-27T09:37:19Z</time>
      </trkpt>
      <trkpt lat="49.40241" lon="1.47058">
        <ele>131</ele>
        <time>2017-10-27T09:39:19Z</time>
      </trkpt>
      <trkpt lat="49.40216" lon="1.4711">
        <ele>123</ele>
        <time>2017-10-27T09:41:19Z</time>
      </trkpt>
      <trkpt lat="49.40201" lon="1.47215">
        <ele>113</ele>
        <time>2017-10-27T09:43:19Z</time>
      </trkpt>
      <trkpt lat="49.40185" lon="1.47273">
        <ele>103</ele>
        <time>2017-10-27T09:45:19Z</time>
      </trkpt>
      <trkpt lat="49.40139" lon="1.47329">
        <ele>90</ele>
        <time>2017-10-27T09:47:19Z</time>
      </trkpt>
      <trkpt lat="49.39933" lon="1.47342">
        <ele>92</ele>
        <time>2017-10-27T09:49:19Z</time>
      </trkpt>
      <trkpt lat="49.39906" lon="1.47324">
        <ele>93</ele>
        <time>2017-10-27T09:51:19Z</time>
      </trkpt>
      <trkpt lat="49.39888" lon="1.47288">
        <ele>94</ele>
        <time>2017-10-27T09:53:19Z</time>
      </trkpt>
      <trkpt lat="49.39898" lon="1.47391">
        <ele>97</ele>
        <time>2017-10-27T09:55:19Z</time>
      </trkpt>
      <trkpt lat="49.39928" lon="1.47432">
        <ele>97</ele>
        <time>2017-10-27T09:57:19Z</time>
      </trkpt>
      <trkpt lat="49.39962" lon="1.475">
        <ele>97</ele>
        <time>2017-10-27T09:59:19Z</time>
      </trkpt>
      <trkpt lat="49.39976" lon="1.47603">
        <ele>100</ele>
        <time>2017-10-27T10:01:19Z</time>
      </trkpt>
      <trkpt lat="49.39937" lon="1.47661">
        <ele>104</ele>
        <time>2017-10-27T10:03:19Z</time>
      </trkpt>
      <trkpt lat="49.39891" lon="1.47676">
        <ele>107</ele>
        <time>2017-10-27T10:05:19Z</time>
      </trkpt>
      <trkpt lat="49.39856" lon="1.47657">
        <ele>107</ele>
        <time>2017-10-27T10:07:19Z</time>
      </trkpt>
      <trkpt lat="49.39949" lon="1.47824">
        <ele>103</ele>
        <time>2017-10-27T10:09:19Z</time>
      </trkpt>
      <trkpt lat="49.39891" lon="1.47895">
        <ele>110</ele>
        <time>2017-10-27T10:11:19Z</time>
      </trkpt>
      <trkpt lat="49.39928" lon="1.47902">
        <ele>106</ele>
        <time>2017-10-27T10:13:19Z</time>
      </trkpt>
    </trkseg>
  </trk>
</gpx>